Time;durP1;ratioP1;P1;durP2;ratioP2;P2;SDS_P1;SDS_P2;PMS_P1;PMS_P2;Temp;Humidity;BMP_temperature;BMP_pressure;BME280_temperature;BME280_humidity;BME280_pressure;Samples;Min_cycle;Max_cycle;Signal;HPM_P1;HPM_P2
2022/01/01 00:00:08;;;;;;;9.40;5.28;;;;;;;9.80;76.09;97103.08;1796641;79;25786;-85
2022/01/01 00:02:37;;;;;;;8.03;4.90;;;;;;;9.80;76.31;97091.47;1801516;79;25751;-86
2022/01/01 00:05:05;;;;;;;9.80;6.05;;;;;;;9.80;76.41;97097.69;1797949;79;27495;-86
2022/01/01 00:07:33;;;;;;;12.53;5.60;;;;;;;9.79;76.54;97097.89;1806308;79;25717;-85
2022/01/01 00:09:59;;;;;;;16.50;11.10;;;;;;;9.73;76.59;97099.08;1808126;79;26323;-85
2022/01/01 00:12:26;;;;;;;18.32;12.55;;;;;;;9.65;76.74;97088.54;1795164;79;25972;-85
2022/01/01 00:14:53;;;;;;;19.02;13.03;;;;;;;9.54;76.81;97094.56;1796279;79;25702;-85
2022/01/01 00:17:19;;;;;;;19.27;12.45;;;;;;;9.49;76.95;97099.78;1801056;79;28160;-84
2022/01/01 00:19:46;;;;;;;20.57;12.98;;;;;;;9.47;77.09;97096.46;1804300;79;25704;-85
2022/01/01 00:22:12;;;;;;;40.38;22.62;;;;;;;9.37;77.15;97092.88;1796976;79;25782;-85
2022/01/01 00:24:39;;;;;;;42.90;23.47;;;;;;;9.31;77.24;97097.73;1786787;79;26745;-85
2022/01/01 00:27:06;;;;;;;25.02;15.68;;;;;;;9.28;77.30;97100.05;1811394;79;25673;-85
2022/01/01 00:29:32;;;;;;;21.42;12.13;;;;;;;9.20;77.45;97097.04;1806897;79;28151;-84
2022/01/01 00:31:59;;;;;;;11.90;7.75;;;;;;;9.10;77.47;97099.86;1798152;79;25708;-85
2022/01/01 00:34:26;;;;;;;12.13;8.05;;;;;;;9.05;77.83;97104.54;1798054;79;25762;-84
2022/01/01 00:36:52;;;;;;;10.90;7.33;;;;;;;9.13;78.27;97104.31;1801398;79;26217;-84
2022/01/01 00:39:19;;;;;;;11.30;7.55;;;;;;;9.19;78.34;97101.28;1801832;79;25970;-85
2022/01/01 00:41:47;;;;;;;9.65;6.83;;;;;;;9.22;78.51;97100.35;1804320;79;27364;-84
2022/01/01 00:44:14;;;;;;;10.30;6.78;;;;;;;9.24;78.63;97104.19;1800013;79;25779;-85
2022/01/01 00:46:40;;;;;;;10.88;7.17;;;;;;;9.27;78.43;97095.70;1797665;79;25737;-85
2022/01/01 00:49:07;;;;;;;10.75;5.72;;;;;;;9.30;78.51;97106.86;1807461;79;25956;-84
2022/01/01 00:51:34;;;;;;;8.13;5.78;;;;;;;9.32;78.56;97107.48;1799767;78;25746;-85
2022/01/01 00:54:00;;;;;;;9.20;6.33;;;;;;;9.36;78.63;97110.59;1802798;79;28236;-85
2022/01/01 00:56:27;;;;;;;10.38;7.75;;;;;;;9.37;78.74;97107.69;1795465;79;25813;-85
2022/01/01 00:58:54;;;;;;;13.40;8.78;;;;;;;9.39;78.70;97108.83;1792437;79;25808;-84
2022/01/01 01:01:20;;;;;;;14.23;10.32;;;;;;;9.38;78.75;97107.16;1806293;79;26618;-85
2022/01/01 01:03:47;;;;;;;14.70;8.95;;;;;;;9.35;78.74;97111.63;1795577;79;25698;-88
2022/01/01 01:06:14;;;;;;;13.45;9.33;;;;;;;9.33;78.84;97112.34;1807992;79;27922;-86
2022/01/01 01:08:41;;;;;;;11.00;7.17;;;;;;;9.33;78.81;97117.73;1803023;79;25224;-85
2022/01/01 01:11:08;;;;;;;11.53;7.65;;;;;;;9.31;78.90;97110.38;1801117;77;25739;-84
2022/01/01 01:13:38;;;;;;;12.23;8.90;;;;;;;9.31;79.02;97114.41;1796326;79;26737;-85
2022/01/01 01:16:05;;;;;;;14.68;10.00;;;;;;;9.31;79.12;97119.80;1786853;79;25728;-84
2022/01/01 01:18:32;;;;;;;15.65;11.10;;;;;;;9.29;79.16;97125.95;1795542;79;27408;-84
2022/01/01 01:20:59;;;;;;;16.35;11.35;;;;;;;9.27;79.19;97122.63;1792107;79;26125;-86
2022/01/01 01:23:25;;;;;;;15.48;10.98;;;;;;;9.24;79.17;97120.34;1791546;79;25811;-86
2022/01/01 01:25:54;;;;;;;13.28;9.58;;;;;;;9.22;79.25;97123.25;1802725;79;26884;-85
2022/01/01 01:28:20;;;;;;;11.73;8.90;;;;;;;9.18;79.27;97118.47;1789662;79;25695;-84
2022/01/01 01:30:47;;;;;;;14.38;8.98;;;;;;;9.14;79.43;97114.05;1808909;79;28026;-84
2022/01/01 01:33:14;;;;;;;22.30;12.58;;;;;;;9.16;79.61;97119.23;1810663;78;26007;-85
2022/01/01 01:35:40;;;;;;;18.82;11.30;;;;;;;9.14;79.62;97128.03;1781794;79;25270;-85
2022/01/01 01:38:07;;;;;;;15.13;10.03;;;;;;;9.08;79.62;97121.60;1798009;79;25964;-85
2022/01/01 01:40:34;;;;;;;10.20;6.62;;;;;;;9.06;79.82;97121.53;1801033;79;25731;-84
2022/01/01 01:43:07;;;;;;;16.35;10.28;;;;;;;9.09;79.93;97127.81;1808680;79;27431;-84
2022/01/01 01:45:29;;;;;;;12.10;8.23;;;;;;;9.11;80.02;97119.02;1798243;79;25720;-84
2022/01/01 01:47:55;;;;;;;35.10;17.27;;;;;;;9.10;80.08;97128.13;1793147;79;26170;-84
2022/01/01 01:50:22;;;;;;;33.95;17.60;;;;;;;9.03;80.07;97120.91;1805596;79;25883;-84
2022/01/01 01:52:54;;;;;;;27.40;15.08;;;;;;;9.02;80.12;97117.89;1805870;78;25743;-84
2022/01/01 01:55:22;;;;;;;10.03;7.10;;;;;;;9.05;80.12;97126.08;1792080;79;27425;-84
2022/01/01 01:57:49;;;;;;;16.45;11.50;;;;;;;9.00;80.28;97133.94;1799865;79;25708;-85
2022/01/01 02:00:53;;;;;;;12.47;8.43;;;;;;;8.97;80.40;97139.22;1802141;77;25899;-84
2022/01/01 02:02:47;;;;;;;15.70;10.23;;;;;;;8.95;80.43;97127.82;1801964;77;26061;-84
2022/01/01 02:05:14;;;;;;;11.28;8.30;;;;;;;8.94;80.51;97140.14;1789032;79;25732;-84
2022/01/01 02:07:42;;;;;;;14.35;8.30;;;;;;;8.92;80.63;97146.27;1810370;77;27348;-84
2022/01/01 02:10:09;;;;;;;5.83;3.12;;;;;;;8.90;80.59;97141.09;1809124;79;25831;-85
2022/01/01 02:12:38;;;;;;;4.20;3.20;;;;;;;8.91;80.81;97148.14;1809975;79;25799;-84
2022/01/01 02:15:12;;;;;;;3.80;2.98;;;;;;;8.97;81.04;97155.37;1784639;79;26328;-83
2022/01/01 02:17:34;;;;;;;4.00;2.62;;;;;;;8.99;80.82;97143.05;1798456;79;25293;-83
2022/01/01 02:20:14;;;;;;;3.25;2.67;;;;;;;9.00;80.95;97157.66;1798261;77;27320;-84
2022/01/01 02:22:50;;;;;;;6.40;3.08;;;;;;;9.06;81.09;97161.91;1791834;79;25778;-84
2022/01/01 02:25:19;;;;;;;3.87;3.33;;;;;;;9.11;81.23;97174.22;1812641;79;25703;-85
2022/01/01 02:27:47;;;;;;;5.37;3.42;;;;;;;9.11;81.25;97166.97;1790781;79;25993;-85
2022/01/01 02:30:16;;;;;;;5.55;3.95;;;;;;;9.15;81.12;97177.64;1803901;79;25257;-83
2022/01/01 02:32:43;;;;;;;5.75;4.40;;;;;;;9.16;81.25;97179.82;1793925;79;27377;-86
2022/01/01 02:35:13;;;;;;;5.87;4.35;;;;;;;9.18;81.24;97183.11;1795914;79;25753;-84
2022/01/01 02:37:40;;;;;;;7.03;3.75;;;;;;;9.19;81.33;97190.98;1792550;79;25743;-83
2022/01/01 02:40:10;;;;;;;5.83;4.35;;;;;;;9.20;81.30;97187.77;1808855;79;25971;-85
2022/01/01 02:42:39;;;;;;;7.75;4.40;;;;;;;9.19;81.36;97192.84;1800513;79;25740;-84
2022/01/01 02:45:09;;;;;;;6.65;4.70;;;;;;;9.19;81.48;97192.84;1794326;79;27319;-85
2022/01/01 02:47:37;;;;;;;6.80;4.50;;;;;;;9.19;81.47;97196.37;1807190;79;25672;-84
2022/01/01 02:50:05;;;;;;;5.65;3.87;;;;;;;9.20;81.49;97201.23;1801544;79;25720;-83
2022/01/01 02:52:32;;;;;;;8.30;4.80;;;;;;;9.18;81.49;97201.44;1788651;78;25993;-84
2022/01/01 02:54:59;;;;;;;7.05;4.47;;;;;;;9.20;81.51;97203.41;1797468;79;25746;-83
2022/01/01 02:57:25;;;;;;;7.50;4.78;;;;;;;9.20;81.71;97212.01;1782524;79;27354;-83
2022/01/01 02:59:52;;;;;;;6.70;5.08;;;;;;;9.21;81.76;97211.81;1793359;79;25920;-83
2022/01/01 03:02:18;;;;;;;8.08;4.42;;;;;;;9.19;81.82;97210.35;1802144;79;25719;-83
2022/01/01 03:04:45;;;;;;;8.03;4.62;;;;;;;9.20;81.89;97212.01;1787990;79;26849;-83
2022/01/01 03:07:12;;;;;;;7.25;5.53;;;;;;;9.19;81.89;97213.05;1809068;79;25652;-87
2022/01/01 03:09:38;;;;;;;8.60;4.95;;;;;;;9.19;82.02;97204.45;1804081;79;28221;-83
2022/01/01 03:12:08;;;;;;;7.58;5.03;;;;;;;9.21;81.96;97209.63;1799813;79;25659;-84
2022/01/01 03:14:36;;;;;;;6.30;4.55;;;;;;;9.23;82.02;97207.05;1808104;79;25719;-84
2022/01/01 03:17:05;;;;;;;7.90;5.40;;;;;;;9.25;82.07;97205.50;1797498;79;26874;-85
2022/01/01 03:19:31;;;;;;;7.42;5.05;;;;;;;9.27;82.08;97202.08;1798848;79;25688;-83
2022/01/01 03:21:58;;;;;;;6.25;4.85;;;;;;;9.28;82.07;97213.17;1799249;79;28016;-83
2022/01/01 03:24:25;;;;;;;5.28;4.28;;;;;;;9.28;82.11;97212.66;1802804;79;25675;-85
2022/01/01 03:26:52;;;;;;;6.12;4.28;;;;;;;9.27;82.14;97217.73;1799349;79;25821;-83
2022/01/01 03:29:19;;;;;;;7.70;4.33;;;;;;;9.24;82.23;97219.48;1792994;79;26479;-85
2022/01/01 03:31:45;;;;;;;5.45;3.98;;;;;;;9.23;82.27;97221.03;1796720;79;25636;-83
2022/01/01 03:34:12;;;;;;;3.90;2.70;;;;;;;9.22;82.22;97230.97;1796794;79;27401;-85
2022/01/01 03:36:39;;;;;;;3.50;2.87;;;;;;;9.21;82.30;97224.44;1811767;79;25747;-84
2022/01/01 03:39:07;;;;;;;3.47;2.45;;;;;;;9.24;82.33;97232.12;1800440;79;25706;-85
2022/01/01 03:41:34;;;;;;;3.02;2.70;;;;;;;9.21;82.28;97225.27;1792946;79;25991;-84
2022/01/01 03:44:00;;;;;;;5.05;3.33;;;;;;;9.23;82.36;97230.45;1798389;79;25840;-83
2022/01/01 03:46:27;;;;;;;3.47;2.42;;;;;;;9.24;82.37;97232.12;1791972;79;27327;-84
2022/01/01 03:48:53;;;;;;;2.83;2.35;;;;;;;9.26;82.34;97235.44;1802461;79;26294;-85
2022/01/01 03:51:20;;;;;;;4.83;3.25;;;;;;;9.28;82.40;97242.80;1804030;78;25729;-83
2022/01/01 03:53:47;;;;;;;4.83;3.22;;;;;;;9.26;82.40;97243.00;1795816;79;26013;-86
2022/01/01 03:56:14;;;;;;;4.12;3.40;;;;;;;9.29;82.45;97252.54;1804607;79;25632;-84
2022/01/01 03:58:42;;;;;;;4.25;2.87;;;;;;;9.28;82.48;97258.95;1797153;79;27366;-83
2022/01/01 04:01:08;;;;;;;5.25;2.80;;;;;;;9.27;82.57;97262.17;1797235;79;25724;-83
2022/01/01 04:03:35;;;;;;;3.98;3.22;;;;;;;9.29;82.68;97261.97;1809352;79;25749;-83
2022/01/01 04:06:02;;;;;;;4.90;3.45;;;;;;;9.29;82.57;97267.35;1790470;79;25729;-85
2022/01/01 04:08:30;;;;;;;4.97;3.15;;;;;;;9.28;82.65;97275.13;1812194;79;25752;-85
2022/01/01 04:10:57;;;;;;;3.90;2.60;;;;;;;9.30;82.70;97277.06;1798631;79;27368;-87
2022/01/01 04:13:24;;;;;;;3.15;2.85;;;;;;;9.29;82.65;97282.17;1801687;79;25810;-85
2022/01/01 04:15:50;;;;;;;3.40;2.52;;;;;;;9.31;82.63;97285.45;1789536;79;25675;-86
2022/01/01 04:18:26;;;;;;;2.33;2.00;;;;;;;9.34;82.73;97290.44;1799363;79;25993;-87
2022/01/01 04:20:47;;;;;;;3.85;2.85;;;;;;;9.34;82.76;97293.97;1798040;78;26164;-85
2022/01/01 04:23:14;;;;;;;2.87;2.45;;;;;;;9.33;82.74;97291.47;1791403;79;28276;-85
2022/01/01 04:25:40;;;;;;;3.87;2.37;;;;;;;9.33;82.68;97289.61;1806686;79;25646;-84
2022/01/01 04:28:07;;;;;;;4.03;2.75;;;;;;;9.31;82.78;97293.54;1810525;79;25739;-88
2022/01/01 04:30:34;;;;;;;3.02;2.30;;;;;;;9.32;82.82;97293.85;1788993;77;25967;-85
2022/01/01 04:33:01;;;;;;;4.12;2.50;;;;;;;9.32;82.80;97292.50;1789942;79;25674;-84
2022/01/01 04:35:28;;;;;;;3.25;2.45;;;;;;;9.32;82.68;97297.89;1807606;79;27340;-85
2022/01/01 04:37:54;;;;;;;4.28;2.40;;;;;;;9.27;82.86;97298.53;1804433;79;25870;-85
2022/01/01 04:40:21;;;;;;;2.45;2.10;;;;;;;9.26;82.95;97301.42;1806316;79;25743;-85
2022/01/01 04:42:49;;;;;;;3.95;2.80;;;;;;;9.27;83.04;97293.66;1796939;79;26025;-90
2022/01/01 04:45:15;;;;;;;3.10;2.20;;;;;;;9.29;83.09;97287.55;1800752;79;25613;-86
2022/01/01 04:47:42;;;;;;;2.67;2.33;;;;;;;9.29;83.07;97290.25;1792410;79;27331;-85
2022/01/01 04:50:09;;;;;;;2.87;2.35;;;;;;;9.25;83.05;97301.94;1809612;79;26032;-88
2022/01/01 04:52:35;;;;;;;3.27;2.30;;;;;;;9.22;83.11;97296.95;1781884;79;26384;-86
2022/01/01 04:55:03;;;;;;;2.60;2.12;;;;;;;9.20;83.11;97299.53;1795296;79;26019;-84
2022/01/01 04:57:30;;;;;;;2.72;2.20;;;;;;;9.20;83.18;97303.58;1805748;79;25795;-87
2022/01/01 04:59:58;;;;;;;3.90;2.15;;;;;;;9.20;83.23;97315.70;1803769;79;27427;-88
2022/01/01 05:02:26;;;;;;;2.50;1.95;;;;;;;9.18;83.29;97311.86;1800636;79;25895;-89
2022/01/01 05:04:53;;;;;;;2.77;2.25;;;;;;;9.18;83.36;97308.33;1798141;79;26466;-84
2022/01/01 05:07:21;;;;;;;2.67;2.02;;;;;;;9.16;83.36;97313.13;1793541;79;26044;-91
2022/01/01 05:09:48;;;;;;;3.22;1.70;;;;;;;9.17;83.48;97317.48;1795090;79;25768;-84
2022/01/01 05:12:15;;;;;;;2.00;1.80;;;;;;;9.18;83.52;97316.41;1788114;79;28148;-87
2022/01/01 05:14:42;;;;;;;2.25;1.77;;;;;;;9.20;83.54;97308.45;1797603;79;25322;-85
2022/01/01 05:17:08;;;;;;;2.27;1.72;;;;;;;9.23;83.57;97316.13;1809236;79;26342;-84
2022/01/01 05:19:35;;;;;;;2.30;2.10;;;;;;;9.27;83.55;97324.63;1788060;79;26842;-90
2022/01/01 05:22:02;;;;;;;2.00;1.27;;;;;;;9.24;83.47;97328.56;1796861;79;25846;-83
2022/01/01 05:24:28;;;;;;;2.20;1.40;;;;;;;9.22;83.35;97320.37;1798030;79;27358;-83
2022/01/01 05:26:55;;;;;;;2.08;1.80;;;;;;;9.21;83.40;97327.62;1798010;77;25206;-89
2022/01/01 05:29:22;;;;;;;2.45;1.60;;;;;;;9.19;83.45;97316.73;1798911;79;25784;-84
2022/01/01 05:31:48;;;;;;;2.67;1.80;;;;;;;9.20;83.58;97324.61;1803987;79;25990;-83
2022/01/01 05:34:15;;;;;;;2.08;1.77;;;;;;;9.23;83.52;97329.59;1808098;77;25261;-87
2022/01/01 05:36:41;;;;;;;2.77;2.08;;;;;;;9.25;83.56;97326.18;1805722;79;28065;-86
2022/01/01 05:39:08;;;;;;;3.25;2.15;;;;;;;9.27;83.60;97328.67;1794942;79;25852;-81
2022/01/01 05:41:35;;;;;;;2.62;2.40;;;;;;;9.27;83.60;97331.37;1790581;79;25949;-86
2022/01/01 05:44:02;;;;;;;2.52;2.22;;;;;;;9.25;83.62;97332.08;1796350;79;25665;-82
2022/01/01 05:46:30;;;;;;;2.40;2.20;;;;;;;9.24;83.62;97338.50;1801975;79;26325;-85
2022/01/01 05:48:57;;;;;;;2.10;1.90;;;;;;;9.26;83.69;97339.13;1785075;78;28019;-80
2022/01/01 05:51:24;;;;;;;2.08;1.77;;;;;;;9.27;83.71;97346.18;1798409;79;25709;-82
2022/01/01 05:53:50;;;;;;;2.77;1.92;;;;;;;9.26;83.70;97341.83;1804498;78;25835;-81
2022/01/01 05:56:17;;;;;;;3.35;1.85;;;;;;;9.26;83.68;97352.60;1795706;79;26045;-82
2022/01/01 05:58:43;;;;;;;2.60;2.25;;;;;;;9.26;83.67;97344.52;1788412;79;25180;-81
2022/01/01 06:01:10;;;;;;;3.37;2.10;;;;;;;9.26;83.67;97362.86;1785382;79;28524;-85
2022/01/01 06:03:37;;;;;;;2.40;2.20;;;;;;;9.27;83.73;97359.66;1804846;79;25275;-88
2022/01/01 06:06:03;;;;;;;2.25;2.05;;;;;;;9.26;83.71;97366.90;1799051;79;25816;-82
2022/01/01 06:08:30;;;;;;;2.08;1.87;;;;;;;9.28;83.77;97369.39;1802136;79;25940;-87
2022/01/01 06:10:56;;;;;;;3.72;1.80;;;;;;;9.29;83.79;97372.41;1797197;78;25793;-85
2022/01/01 06:13:23;;;;;;;3.27;2.00;;;;;;;9.30;83.81;97364.61;1792904;79;28251;-82
2022/01/01 06:15:50;;;;;;;3.40;2.47;;;;;;;9.29;83.75;97360.28;1794661;79;26528;-82
2022/01/01 06:18:17;;;;;;;2.50;2.08;;;;;;;9.26;83.81;97357.47;1790314;79;25689;-81
2022/01/01 06:20:43;;;;;;;2.20;2.00;;;;;;;9.29;83.90;97366.50;1797597;79;26757;-82
2022/01/01 06:23:10;;;;;;;2.05;1.85;;;;;;;9.31;83.88;97359.02;1785842;79;25747;-82
2022/01/01 06:25:37;;;;;;;2.75;2.50;;;;;;;9.32;83.90;97365.23;1809088;77;27365;-82
2022/01/01 06:28:04;;;;;;;2.42;2.12;;;;;;;9.31;83.89;97363.58;1785190;79;26009;-82
2022/01/01 06:30:35;;;;;;;3.17;1.95;;;;;;;9.28;83.79;97370.73;1800067;79;25843;-86
2022/01/01 06:33:14;;;;;;;2.95;1.75;;;;;;;9.30;83.92;97364.61;1795705;79;25994;-82
2022/01/01 06:35:42;;;;;;;2.22;1.40;;;;;;;9.37;84.02;97371.69;1796305;79;25653;-82
2022/01/01 06:38:10;;;;;;;1.90;1.32;;;;;;;9.42;83.91;97371.05;1790071;79;27514;-87
2022/01/01 06:40:39;;;;;;;1.25;1.15;;;;;;;9.45;83.90;97372.00;1789465;79;26238;-87
2022/01/01 06:43:08;;;;;;;1.65;1.20;;;;;;;9.49;83.88;97365.17;1780690;80;25757;-88
2022/01/01 06:45:35;;;;;;;1.40;1.10;;;;;;;9.50;83.86;97369.53;1780702;80;26019;-86
2022/01/01 06:48:02;;;;;;;1.32;1.10;;;;;;;9.51;83.82;97379.80;1777570;80;25781;-84
2022/01/01 06:50:29;;;;;;;1.85;1.00;;;;;;;9.48;83.78;97379.67;1780648;80;27427;-87
2022/01/01 06:52:56;;;;;;;1.37;0.72;;;;;;;9.48;83.75;97390.45;1780238;79;25747;-86
2022/01/01 06:55:22;;;;;;;0.80;0.80;;;;;;;9.48;83.75;97383.72;1780646;80;25721;-86
2022/01/01 06:57:49;;;;;;;1.50;1.20;;;;;;;9.49;83.74;97396.16;1786716;79;26026;-85
2022/01/01 07:00:17;;;;;;;2.17;1.57;;;;;;;9.51;83.70;97396.79;1789939;79;25713;-86
2022/01/01 07:02:46;;;;;;;2.12;1.00;;;;;;;9.52;83.78;97405.70;1788642;79;28042;-86
2022/01/01 07:05:15;;;;;;;1.17;0.93;;;;;;;9.51;83.72;97399.48;1780322;79;25906;-87
2022/01/01 07:07:42;;;;;;;1.57;1.00;;;;;;;9.53;83.81;97409.55;1780731;79;25729;-88
2022/01/01 07:10:12;;;;;;;1.10;1.00;;;;;;;9.53;83.81;97402.81;1780689;79;26712;-86
2022/01/01 07:12:39;;;;;;;1.17;0.98;;;;;;;9.55;83.80;97407.45;1788536;79;25680;-87
2022/01/01 07:15:08;;;;;;;1.80;1.32;;;;;;;9.54;83.73;97413.88;1780659;79;27508;-88
2022/01/01 07:17:35;;;;;;;2.02;1.50;;;;;;;9.55;83.71;97416.88;1780691;79;25780;-91
2022/01/01 07:20:02;;;;;;;2.05;1.20;;;;;;;9.59;83.76;97418.14;1780726;79;26386;-90
2022/01/01 07:22:29;;;;;;;1.62;1.22;;;;;;;9.61;83.73;97421.47;1785924;79;26757;-88
2022/01/01 07:24:57;;;;;;;2.50;1.55;;;;;;;9.63;83.66;97411.32;1790892;79;25702;-89
2022/01/01 07:27:23;;;;;;;3.98;1.92;;;;;;;9.65;83.67;97419.20;1780645;79;27516;-89
2022/01/01 07:29:50;;;;;;;5.50;1.95;;;;;;;9.67;83.61;97426.02;1780590;79;25675;-88
2022/01/01 07:32:17;;;;;;;4.10;1.98;;;;;;;9.68;83.59;97430.38;1780901;79;25807;-88
2022/01/01 07:34:43;;;;;;;3.33;2.15;;;;;;;9.69;83.57;97438.78;1780712;79;26471;-87
2022/01/01 07:37:10;;;;;;;2.75;1.67;;;;;;;9.68;83.52;97430.90;1784249;77;26324;-89
2022/01/01 07:39:37;;;;;;;2.90;1.60;;;;;;;9.67;83.56;97434.11;1811509;79;27340;-91
2022/01/01 07:42:04;;;;;;;2.83;1.62;;;;;;;9.67;83.55;97436.80;1795883;78;25781;-89
2022/01/01 07:44:31;;;;;;;2.30;1.60;;;;;;;9.70;83.52;97451.75;1781032;79;25794;-92
2022/01/01 07:46:57;;;;;;;2.85;1.98;;;;;;;9.72;83.51;97455.91;1788970;79;25819;-89
2022/01/01 07:49:24;;;;;;;2.87;2.10;;;;;;;9.73;83.46;97452.17;1811968;79;25668;-90
2022/01/01 07:51:51;;;;;;;2.95;2.30;;;;;;;9.72;83.45;97453.21;1787333;79;27997;-89
2022/01/01 07:54:17;;;;;;;4.75;2.98;;;;;;;9.72;83.41;97442.94;1788096;79;25725;-89
2022/01/01 07:56:44;;;;;;;4.50;2.80;;;;;;;9.71;83.35;97444.81;1802345;79;25763;-89
2022/01/01 07:59:11;;;;;;;4.22;3.70;;;;;;;9.70;83.40;97454.44;1812485;79;26847;-83
2022/01/01 08:01:38;;;;;;;4.53;3.65;;;;;;;9.70;83.32;97457.14;1807454;78;25816;-83
2022/01/01 08:04:04;;;;;;;4.22;3.35;;;;;;;9.67;83.29;97454.33;1801513;79;28274;-87
2022/01/01 08:06:32;;;;;;;5.92;3.42;;;;;;;9.63;83.31;97459.83;1803018;79;26019;-86
2022/01/01 08:08:58;;;;;;;5.28;3.62;;;;;;;9.62;83.37;97460.86;1798761;79;26515;-85
2022/01/01 08:11:25;;;;;;;5.60;3.33;;;;;;;9.63;83.35;97469.78;1809115;77;26929;-84
2022/01/01 08:13:53;;;;;;;6.05;4.47;;;;;;;9.60;83.28;97472.36;1807897;79;25823;-84
2022/01/01 08:16:21;;;;;;;5.37;4.03;;;;;;;9.57;83.35;97471.41;1804905;77;28147;-84
2022/01/01 08:18:47;;;;;;;4.50;3.80;;;;;;;9.59;83.44;97463.95;1800746;79;25732;-87
2022/01/01 08:21:14;;;;;;;4.42;3.62;;;;;;;9.62;83.47;97474.34;1801920;78;25905;-88
2022/01/01 08:23:41;;;;;;;4.65;3.37;;;;;;;9.63;83.38;97470.61;1799247;79;25974;-84
2022/01/01 08:26:07;;;;;;;5.08;3.42;;;;;;;9.66;83.36;97469.38;1806199;78;25744;-87
2022/01/01 08:28:34;;;;;;;5.20;3.80;;;;;;;9.68;83.32;97478.90;1805469;79;27294;-85
2022/01/01 08:31:01;;;;;;;4.40;3.42;;;;;;;9.71;83.29;97486.59;1805677;79;25969;-89
2022/01/01 08:33:27;;;;;;;4.75;3.50;;;;;;;9.68;83.26;97484.29;1812417;78;25724;-87
2022/01/01 08:35:54;;;;;;;5.53;3.60;;;;;;;9.70;83.28;97487.62;1811821;78;26132;-84
2022/01/01 08:38:20;;;;;;;6.42;4.00;;;;;;;9.72;83.25;97495.50;1811250;79;25719;-86
2022/01/01 08:40:47;;;;;;;5.58;3.50;;;;;;;9.70;83.22;97495.70;1812287;78;28328;-88
2022/01/01 08:43:14;;;;;;;4.42;3.08;;;;;;;9.74;83.24;97489.40;1803421;79;25708;-88
2022/01/01 08:45:40;;;;;;;4.62;3.30;;;;;;;9.78;83.20;97497.38;1807998;79;25703;-88
2022/01/01 08:48:08;;;;;;;4.20;3.08;;;;;;;9.81;83.23;97490.75;1800393;79;26156;-89
2022/01/01 08:50:34;;;;;;;3.02;2.30;;;;;;;9.85;83.19;97492.01;1743892;80;26412;-83
2022/01/01 08:53:01;;;;;;;3.72;2.55;;;;;;;9.90;83.23;97495.73;1759458;80;28315;-87
2022/01/01 08:55:29;;;;;;;3.83;2.83;;;;;;;9.94;83.17;97489.42;1722343;82;25822;-84
2022/01/01 08:57:58;;;;;;;4.17;2.98;;;;;;;9.95;83.03;97500.52;1726411;81;26552;-89
2022/01/01 09:00:25;;;;;;;6.45;3.40;;;;;;;9.96;82.96;97505.72;1743368;82;26723;-90
2022/01/01 09:02:52;;;;;;;4.83;2.67;;;;;;;9.97;83.00;97495.77;1754411;80;25737;-86
2022/01/01 09:05:18;;;;;;;3.35;2.40;;;;;;;10.00;83.10;97504.28;1753308;80;28248;-88
2022/01/01 09:07:45;;;;;;;4.00;2.65;;;;;;;10.06;83.07;97508.01;1754894;81;25740;-87
2022/01/01 09:10:12;;;;;;;3.83;2.47;;;;;;;10.00;82.85;97503.45;1746688;81;25268;-85
2022/01/01 09:12:38;;;;;;;2.50;2.08;;;;;;;9.91;82.87;97507.36;1754884;81;26037;-87
2022/01/01 09:15:05;;;;;;;2.95;2.65;;;;;;;9.86;82.93;97509.84;1754034;81;25754;-87
2022/01/01 09:17:32;;;;;;;4.62;2.50;;;;;;;9.83;83.05;97503.51;1750321;81;27333;-84
2022/01/01 09:19:59;;;;;;;2.92;2.45;;;;;;;9.88;83.04;97506.44;1743385;81;25849;-84
2022/01/01 09:22:26;;;;;;;4.95;3.47;;;;;;;9.87;82.96;97508.30;1751766;81;25769;-84
2022/01/01 09:24:52;;;;;;;6.17;2.87;;;;;;;9.85;82.98;97513.58;1752932;81;26042;-85
2022/01/01 09:27:20;;;;;;;3.75;2.87;;;;;;;9.81;82.96;97506.92;1747306;80;25757;-84
2022/01/01 09:29:47;;;;;;;5.80;3.30;;;;;;;9.82;83.07;97509.94;1742586;80;27614;-85
2022/01/01 09:32:14;;;;;;;5.55;3.72;;;;;;;9.83;83.13;97508.91;1748700;80;25845;-84
2022/01/01 09:34:40;;;;;;;6.12;3.72;;;;;;;9.86;83.14;97505.80;1746438;81;25714;-84
2022/01/01 09:37:08;;;;;;;7.55;4.17;;;;;;;9.85;83.14;97513.58;1748995;80;26798;-89
2022/01/01 09:39:35;;;;;;;6.22;3.75;;;;;;;9.87;83.23;97509.65;1749590;80;26401;-85
2022/01/01 09:42:02;;;;;;;8.18;3.60;;;;;;;9.90;83.21;97515.95;1740957;80;27525;-84
2022/01/01 09:44:31;;;;;;;5.92;3.55;;;;;;;9.92;83.22;97522.50;1735519;81;26336;-89
2022/01/01 09:46:58;;;;;;;6.95;3.67;;;;;;;9.96;83.24;97519.72;1753433;80;25304;-84
2022/01/01 09:49:26;;;;;;;6.75;4.05;;;;;;;9.96;83.22;97523.77;1733034;80;26317;-88
2022/01/01 09:51:52;;;;;;;6.28;3.72;;;;;;;9.96;83.18;97526.46;1728053;81;25804;-92
2022/01/01 09:54:19;;;;;;;4.92;3.08;;;;;;;9.96;83.19;97527.29;1737845;80;28495;-89
2022/01/01 09:56:46;;;;;;;7.20;3.12;;;;;;;9.94;83.19;97525.83;1744657;81;25746;-90
2022/01/01 09:59:14;;;;;;;5.15;3.05;;;;;;;9.94;83.25;97532.05;1738020;81;25762;-91
2022/01/01 10:01:40;;;;;;;6.65;2.80;;;;;;;9.94;83.24;97533.40;1743456;81;26029;-91
2022/01/01 10:04:15;;;;;;;4.80;2.52;;;;;;;9.93;83.20;97537.64;1741945;80;25767;-88
2022/01/01 10:06:43;;;;;;;3.52;2.67;;;;;;;9.91;83.17;97539.70;1707042;81;47781;-88
2022/01/01 10:09:09;;;;;;;3.12;2.30;;;;;;;10.01;82.94;97535.61;1743726;81;25786;-88
2022/01/01 10:11:37;;;;;;;4.40;2.75;;;;;;;9.96;82.91;97537.25;1746806;81;26259;-88
2022/01/01 10:14:08;;;;;;;4.62;2.70;;;;;;;9.96;83.01;97539.94;1751003;81;26612;-89
2022/01/01 10:16:44;;;;;;;3.40;2.20;;;;;;;9.92;82.99;97538.16;1749525;81;25800;-88
2022/01/01 10:19:12;;;;;;;2.58;2.15;;;;;;;9.91;82.97;97537.84;1752330;81;27467;-89
2022/01/01 10:21:41;;;;;;;3.22;2.02;;;;;;;9.93;83.00;97541.17;1752679;81;25753;-88
2022/01/01 10:24:13;;;;;;;4.22;2.27;;;;;;;9.93;82.99;97537.64;1752752;81;25793;-88
2022/01/01 10:29:32;;;;;;;3.27;2.15;;;;;;;9.98;83.06;97532.48;1750101;80;25762;-90
2022/01/01 10:32:10;;;;;;;5.42;2.40;;;;;;;9.98;82.95;97533.31;1752357;81;27399;-88
2022/01/01 10:34:47;;;;;;;3.12;2.27;;;;;;;10.00;82.91;97538.51;1752545;81;25899;-87
2022/01/01 10:37:15;;;;;;;4.05;2.40;;;;;;;10.01;82.87;97538.83;1752524;81;25824;-86
2022/01/01 10:39:54;;;;;;;4.20;2.47;;;;;;;10.01;82.73;97540.17;1752800;80;26162;-86
2022/01/01 10:42:21;;;;;;;3.65;2.77;;;;;;;9.98;82.64;97540.58;1753024;81;25722;-89
2022/01/01 10:44:51;;;;;;;4.03;3.17;;;;;;;9.97;82.62;97542.95;1752814;81;27537;-89
2022/01/01 10:47:27;;;;;;;6.72;4.17;;;;;;;9.96;82.62;97538.59;1752539;81;25772;-90
2022/01/01 10:50:03;;;;;;;8.53;4.83;;;;;;;9.93;82.65;97543.04;1752470;81;25814;-89
2022/01/01 10:52:28;;;;;;;6.83;4.40;;;;;;;9.94;82.67;97542.00;1751491;81;26956;-90
2022/01/01 10:55:06;;;;;;;7.45;4.72;;;;;;;9.90;82.57;97544.81;1752330;80;25748;-84
2022/01/01 10:57:41;;;;;;;5.25;4.25;;;;;;;9.90;82.54;97540.22;1731750;81;28392;-83
2022/01/01 11:00:21;;;;;;;8.85;5.35;;;;;;;9.93;82.53;97536.30;1746482;81;25772;-86
2022/01/01 11:02:52;;;;;;;9.03;4.90;;;;;;;9.93;82.48;97540.34;1748459;80;25224;-89
2022/01/01 11:05:34;;;;;;;5.83;4.33;;;;;;;9.95;82.46;97536.93;1743650;80;26043;-86
2022/01/01 11:08:04;;;;;;;6.22;4.65;;;;;;;9.94;82.33;97531.22;1745264;81;25794;-84
2022/01/01 11:10:31;;;;;;;7.53;4.78;;;;;;;9.92;82.30;97535.98;1744484;81;27364;-87
2022/01/01 11:12:59;;;;;;;8.78;4.42;;;;;;;9.93;82.33;97539.00;1740590;81;25840;-89
2022/01/01 11:15:27;;;;;;;5.05;3.95;;;;;;;9.95;82.27;97540.97;1740339;80;25828;-84
2022/01/01 11:17:58;;;;;;;7.08;4.87;;;;;;;9.93;82.26;97548.43;1752100;81;26783;-88
2022/01/01 11:20:30;;;;;;;5.78;4.47;;;;;;;9.90;82.31;97546.17;1743751;81;25781;-84
2022/01/01 11:22:57;;;;;;;6.40;3.80;;;;;;;9.91;82.40;97549.14;1737938;81;27247;-86
2022/01/01 11:25:24;;;;;;;5.15;3.52;;;;;;;9.89;82.33;97553.42;1729478;81;25837;-83
2022/01/01 11:27:53;;;;;;;4.95;2.83;;;;;;;9.84;82.39;97552.36;1732222;81;25333;-86
2022/01/01 11:30:19;;;;;;;6.37;3.65;;;;;;;9.81;82.44;97544.66;1751781;81;26235;-84
2022/01/01 11:32:54;;;;;;;3.92;2.95;;;;;;;9.79;82.56;97545.38;1752396;80;25741;-84
2022/01/01 11:35:25;;;;;;;5.00;3.52;;;;;;;9.81;82.70;97541.97;1752335;81;27433;-87
2022/01/01 11:38:08;;;;;;;4.05;3.02;;;;;;;9.81;82.80;97541.97;1750052;81;25757;-83
2022/01/01 11:40:57;;;;;;;6.40;3.95;;;;;;;9.82;82.83;97537.72;1729955;81;25665;-88
2022/01/01 11:43:52;;;;;;;4.42;3.42;;;;;;;9.83;82.71;97543.95;1728738;81;27336;-86